sensor_id;sensor_type;location;lat;lon;timestamp;temperature;humidity
27978;DHT22;15314;49.248;6.968;2023-03-14T00:00:45;10.70;99.90
27978;DHT22;15314;49.248;6.968;2023-03-14T00:01:46;10.70;99.90
27978;DHT22;15314;49.248;6.968;2023-03-14T00:02:52;10.70;99.90
27978;DHT22;15314;49.248;6.968;2023-03-14T00:03:53;10.70;99.90
27978;DHT22;15314;49.248;6.968;2023-03-14T00:04:55;10.70;99.90
27978;DHT22;15314;49.248;6.968;2023-03-14T00:05:56;10.70;99.90
27978;DHT22;15314;49.248;6.968;2023-03-14T00:06:57;10.80;99.90
27978;DHT22;15314;49.248;6.968;2023-03-14T00:07:58;10.70;99.90
27978;DHT22;15314;49.248;6.968;2023-03-14T00:08:58;10.70;99.90
27978;DHT22;15314;49.248;6.968;2023-03-14T00:09:59;10.70;99.90
27978;DHT22;15314;49.248;6.968;2023-03-14T00:11:09;10.70;99.90
27978;DHT22;15314;49.248;6.968;2023-03-14T00:12:10;10.70;99.90
27978;DHT22;15314;49.248;6.968;2023-03-14T00:13:10;10.70;99.90
27978;DHT22;15314;49.248;6.968;2023-03-14T00:14:11;10.70;99.90
27978;DHT22;15314;49.248;6.968;2023-03-14T00:15:12;10.70;99.90
27978;DHT22;15314;49.248;6.968;2023-03-14T00:16:13;10.70;99.90
27978;DHT22;15314;49.248;6.968;2023-03-14T00:17:14;10.70;99.90
27978;DHT22;15314;49.248;6.968;2023-03-14T00:18:15;10.70;99.90
27978;DHT22;15314;49.248;6.968;2023-03-14T00:19:16;10.80;99.90
27978;DHT22;15314;49.248;6.968;2023-03-14T08:08:10;12.10;99.90
27978;DHT22;15314;49.248;6.968;2023-03-14T08:09:11;12.00;99.90
27978;DHT22;15314;49.248;6.968;2023-03-14T08:10:18;11.90;99.90
27978;DHT22;15314;49.248;6.968;2023-03-14T08:11:25;11.90;99.90
27978;DHT22;15314;49.248;6.968;2023-03-14T08:12:26;12.00;99.90
27978;DHT22;15314;49.248;6.968;2023-03-14T08:13:27;12.10;99.90
27978;DHT22;15314;49.248;6.968;2023-03-14T08:14:27;12.20;99.90
27978;DHT22;15314;49.248;6.968;2023-03-14T08:15:30;12.10;99.90
27978;DHT22;15314;49.248;6.968;2023-03-14T08:16:31;11.90;99.90
27978;DHT22;15314;49.248;6.968;2023-03-14T08:17:32;12.00;99.90
27978;DHT22;15314;49.248;6.968;2023-03-14T08:18:33;12.00;99.90
27978;DHT22;15314;49.248;6.968;2023-03-14T08:19:33;12.00;99.90
27978;DHT22;15314;49.248;6.968;2023-03-14T08:20:35;11.80;99.90
27978;DHT22;15314;49.248;6.968;2023-03-14T08:21:37;11.90;99.90
27978;DHT22;15314;49.248;6.968;2023-03-14T08:22:38;11.80;99.90
27978;DHT22;15314;49.248;6.968;2023-03-14T08:23:40;11.80;99.90
27978;DHT22;15314;49.248;6.968;2023-03-14T08:24:41;11.80;99.90
27978;DHT22;15314;49.248;6.968;2023-03-14T08:25:42;11.60;99.90
27978;DHT22;15314;49.248;6.968;2023-03-14T08:26:43;11.60;99.90
27978;DHT22;15314;49.248;6.968;2023-03-14T08:27:44;11.70;99.90
27978;DHT22;15314;49.248;6.968;2023-03-14T08:28:45;11.70;99.90
27978;DHT22;15314;49.248;6.968;2023-03-14T08:29:46;11.50;99.90
27978;DHT22;15314;49.248;6.968;2023-03-14T08:30:46;11.60;99.90
27978;DHT22;15314;49.248;6.968;2023-03-14T08:31:47;11.60;99.90
27978;DHT22;15314;49.248;6.968;2023-03-14T08:32:49;11.60;99.90
27978;DHT22;15314;49.248;6.968;2023-03-14T08:33:50;11.60;99.90
27978;DHT22;15314;49.248;6.968;2023-03-14T08:34:52;11.60;99.90
27978;DHT22;15314;49.248;6.968;2023-03-14T08:35:54;11.60;99.90
27978;DHT22;15314;49.248;6.968;2023-03-14T08:36:55;11.60;99.90
27978;DHT22;15314;49.248;6.968;2023-03-14T08:37:57;11.60;99.90
27978;DHT22;15314;49.248;6.968;2023-03-14T08:38:58;11.60;99.90
27978;DHT22;15314;49.248;6.968;2023-03-14T08:39:59;11.70;99.90
27978;DHT22;15314;49.248;6.968;2023-03-14T08:41:01;11.70;99.90
27978;DHT22;15314;49.248;6.968;2023-03-14T08:42:02;11.80;99.90
27978;DHT22;15314;49.248;6.968;2023-03-14T08:43:02;11.90;99.90
27978;DHT22;15314;49.248;6.968;2023-03-14T08:44:03;12.00;99.90
27978;DHT22;15314;49.248;6.968;2023-03-14T08:45:05;12.00;99.90
27978;DHT22;15314;49.248;6.968;2023-03-14T08:46:06;12.00;99.90
27978;DHT22;15314;49.248;6.968;2023-03-14T08:47:06;12.00;99.90
27978;DHT22;15314;49.248;6.968;2023-03-14T08:48:07;11.80;99.90
27978;DHT22;15314;49.248;6.968;2023-03-14T08:49:08;11.70;99.90
27978;DHT22;15314;49.248;6.968;2023-03-14T08:50:10;11.60;99.90
27978;DHT22;15314;49.248;6.968;2023-03-14T08:51:13;11.50;99.90
27978;DHT22;15314;49.248;6.968;2023-03-14T08:52:14;11.60;99.90
27978;DHT22;15314;49.248;6.968;2023-03-14T08:53:16;11.60;99.90
27978;DHT22;15314;49.248;6.968;2023-03-14T08:54:17;11.50;99.90
27978;DHT22;15314;49.248;6.968;2023-03-14T08:55:19;11.40;99.90
27978;DHT22;15314;49.248;6.968;2023-03-14T08:56:40;11.40;99.90
27978;DHT22;15314;49.248;6.968;2023-03-14T08:57:41;11.40;99.90
27978;DHT22;15314;49.248;6.968;2023-03-14T08:58:42;11.30;99.90
27978;DHT22;15314;49.248;6.968;2023-03-14T08:59:43;11.10;99.90
27978;DHT22;15314;49.248;6.968;2023-03-14T09:00:43;11.00;99.90
27978;DHT22;15314;49.248;6.968;2023-03-14T09:01:44;10.90;99.90
27978;DHT22;15314;49.248;6.968;2023-03-14T09:02:46;10.90;99.90
27978;DHT22;15314;49.248;6.968;2023-03-14T09:03:47;10.70;99.90
27978;DHT22;15314;49.248;6.968;2023-03-14T09:04:50;10.70;99.90
27978;DHT22;15314;49.248;6.968;2023-03-14T09:05:52;10.60;99.90
27978;DHT22;15314;49.248;6.968;2023-03-14T09:06:53;10.70;99.90
27978;DHT22;15314;49.248;6.968;2023-03-14T09:07:54;10.70;99.90
27978;DHT22;15314;49.248;6.968;2023-03-14T09:08:55;10.70;99.90
27978;DHT22;15314;49.248;6.968;2023-03-14T09:09:55;10.70;99.90
27978;DHT22;15314;49.248;6.968;2023-03-14T09:10:56;10.60;99.90
27978;DHT22;15314;49.248;6.968;2023-03-14T09:11:58;10.50;99.90
27978;DHT22;15314;49.248;6.968;2023-03-14T09:13:01;10.50;99.90
27978;DHT22;15314;49.248;6.968;2023-03-14T09:14:03;10.50;99.90
27978;DHT22;15314;49.248;6.968;2023-03-14T09:15:04;10.60;99.90
27978;DHT22;15314;49.248;6.968;2023-03-14T09:16:07;10.50;99.90
27978;DHT22;15314;49.248;6.968;2023-03-14T09:17:08;10.50;99.90
27978;DHT22;15314;49.248;6.968;2023-03-14T09:18:09;10.50;99.90
27978;DHT22;15314;49.248;6.968;2023-03-14T09:19:10;10.50;99.90
27978;DHT22;15314;49.248;6.968;2023-03-14T09:20:11;10.50;99.90
27978;DHT22;15314;49.248;6.968;2023-03-14T09:21:12;10.50;99.90
27978;DHT22;15314;49.248;6.968;2023-03-14T09:22:13;10.40;99.90
27978;DHT22;15314;49.248;6.968;2023-03-14T09:23:14;10.50;99.90
27978;DHT22;15314;49.248;6.968;2023-03-14T09:24:16;10.50;99.90
27978;DHT22;15314;49.248;6.968;2023-03-14T09:25:17;10.50;99.90
27978;DHT22;15314;49.248;6.968;2023-03-14T09:26:45;10.60;99.90
27978;DHT22;15314;49.248;6.968;2023-03-14T09:27:55;10.60;99.90
27978;DHT22;15314;49.248;6.968;2023-03-14T09:28:56;10.60;99.90
27978;DHT22;15314;49.248;6.968;2023-03-14T09:29:57;10.60;99.90
27978;DHT22;15314;49.248;6.968;2023-03-14T09:31:05;10.60;99.90
27978;DHT22;15314;49.248;6.968;2023-03-14T09:32:06;10.60;99.90
27978;DHT22;15314;49.248;6.968;2023-03-14T09:33:07;10.70;99.90
27978;DHT22;15314;49.248;6.968;2023-03-14T09:34:08;10.60;99.90
27978;DHT22;15314;49.248;6.968;2023-03-14T09:35:09;10.60;99.90
27978;DHT22;15314;49.248;6.968;2023-03-14T09:36:10;10.50;99.90
27978;DHT22;15314;49.248;6.968;2023-03-14T09:37:11;10.60;99.90
27978;DHT22;15314;49.248;6.968;2023-03-14T09:38:12;10.60;99.90
27978;DHT22;15314;49.248;6.968;2023-03-14T09:39:13;10.60;99.90
27978;DHT22;15314;49.248;6.968;2023-03-14T09:40:16;10.80;99.90
27978;DHT22;15314;49.248;6.968;2023-03-14T09:41:34;10.80;99.90
27978;DHT22;15314;49.248;6.968;2023-03-14T09:42:37;11.00;99.90
27978;DHT22;15314;49.248;6.968;2023-03-14T09:43:42;11.10;99.90
27978;DHT22;15314;49.248;6.968;2023-03-14T09:44:55;11.30;99.90
27978;DHT22;15314;49.248;6.968;2023-03-14T09:45:58;11.20;99.90
27978;DHT22;15314;49.248;6.968;2023-03-14T09:47:06;11.00;99.90
27978;DHT22;15314;49.248;6.968;2023-03-14T09:48:15;11.00;99.90
27978;DHT22;15314;49.248;6.968;2023-03-14T09:49:29;10.90;99.90
27978;DHT22;15314;49.248;6.968;2023-03-14T09:50:37;10.90;99.90
27978;DHT22;15314;49.248;6.968;2023-03-14T09:51:39;10.90;99.90
27978;DHT22;15314;49.248;6.968;2023-03-14T09:52:44;10.70;99.90
27978;DHT22;15314;49.248;6.968;2023-03-14T09:55:50;10.80;99.90
27978;DHT22;15314;49.248;6.968;2023-03-14T09:56:53;10.80;99.90
27978;DHT22;15314;49.248;6.968;2023-03-14T09:57:59;10.60;99.90
27978;DHT22;15314;49.248;6.968;2023-03-14T09:59:03;10.50;99.90
27978;DHT22;15314;49.248;6.968;2023-03-14T10:00:18;10.20;99.90
27978;DHT22;15314;49.248;6.968;2023-03-14T10:01:24;10.00;99.90
27978;DHT22;15314;49.248;6.968;2023-03-14T10:04:22;9.80;99.90
27978;DHT22;15314;49.248;6.968;2023-03-14T10:05:26;9.70;99.90
27978;DHT22;15314;49.248;6.968;2023-03-14T10:06:30;9.50;99.90
27978;DHT22;15314;49.248;6.968;2023-03-14T10:07:32;9.40;99.90
27978;DHT22;15314;49.248;6.968;2023-03-14T10:08:33;9.30;99.90
27978;DHT22;15314;49.248;6.968;2023-03-14T10:09:34;9.30;99.90
27978;DHT22;15314;49.248;6.968;2023-03-14T10:10:36;9.30;99.90
27978;DHT22;15314;49.248;6.968;2023-03-14T10:11:36;9.30;99.90
27978;DHT22;15314;49.248;6.968;2023-03-14T10:12:39;9.30;99.90
27978;DHT22;15314;49.248;6.968;2023-03-14T10:14:10;9.20;99.90
27978;DHT22;15314;49.248;6.968;2023-03-14T10:15:15;9.30;99.90
27978;DHT22;15314;49.248;6.968;2023-03-14T10:16:29;9.30;99.90
27978;DHT22;15314;49.248;6.968;2023-03-14T10:17:46;9.30;99.90
27978;DHT22;15314;49.248;6.968;2023-03-14T10:18:47;9.20;99.90
27978;DHT22;15314;49.248;6.968;2023-03-14T10:19:59;9.20;99.90
27978;DHT22;15314;49.248;6.968;2023-03-14T10:21:17;9.10;99.90
27978;DHT22;15314;49.248;6.968;2023-03-14T10:22:19;9.10;99.90
27978;DHT22;15314;49.248;6.968;2023-03-14T10:23:26;9.20;99.90
27978;DHT22;15314;49.248;6.968;2023-03-14T10:24:33;9.30;99.90
27978;DHT22;15314;49.248;6.968;2023-03-14T10:25:36;9.10;99.90
27978;DHT22;15314;49.248;6.968;2023-03-14T10:26:38;9.10;99.90
27978;DHT22;15314;49.248;6.968;2023-03-14T10:27:38;9.20;99.90
27978;DHT22;15314;49.248;6.968;2023-03-14T10:28:43;9.10;99.90
27978;DHT22;15314;49.248;6.968;2023-03-14T10:29:56;9.00;99.90
27978;DHT22;15314;49.248;6.968;2023-03-14T10:30:58;9.10;99.90
27978;DHT22;15314;49.248;6.968;2023-03-14T10:32:04;9.10;99.90
27978;DHT22;15314;49.248;6.968;2023-03-14T10:33:20;9.10;99.90
27978;DHT22;15314;49.248;6.968;2023-03-14T10:34:31;9.00;99.90
27978;DHT22;15314;49.248;6.968;2023-03-14T10:35:34;9.00;99.90
27978;DHT22;15314;49.248;6.968;2023-03-14T10:36:35;9.00;99.90
27978;DHT22;15314;49.248;6.968;2023-03-14T10:37:36;9.00;99.90
27978;DHT22;15314;49.248;6.968;2023-03-14T10:38:48;9.10;99.90
27978;DHT22;15314;49.248;6.968;2023-03-14T10:39:54;8.90;99.90
27978;DHT22;15314;49.248;6.968;2023-03-14T10:40:56;8.90;99.90
27978;DHT22;15314;49.248;6.968;2023-03-14T10:42:51;8.80;99.90
27978;DHT22;15314;49.248;6.968;2023-03-14T10:43:57;8.80;99.90
27978;DHT22;15314;49.248;6.968;2023-03-14T10:45:02;8.70;99.90
27978;DHT22;15314;49.248;6.968;2023-03-14T10:46:11;8.80;99.90
27978;DHT22;15314;49.248;6.968;2023-03-14T10:47:19;8.80;99.90
27978;DHT22;15314;49.248;6.968;2023-03-14T10:48:23;8.80;99.90
27978;DHT22;15314;49.248;6.968;2023-03-14T10:49:36;8.70;99.90
27978;DHT22;15314;49.248;6.968;2023-03-14T10:50:37;8.70;99.90
27978;DHT22;15314;49.248;6.968;2023-03-14T10:51:45;8.70;99.90
27978;DHT22;15314;49.248;6.968;2023-03-14T10:52:47;8.90;99.90
27978;DHT22;15314;49.248;6.968;2023-03-14T10:54:00;8.90;99.90
27978;DHT22;15314;49.248;6.968;2023-03-14T10:55:08;8.80;99.90
27978;DHT22;15314;49.248;6.968;2023-03-14T10:56:14;8.80;99.90
27978;DHT22;15314;49.248;6.968;2023-03-14T10:57:15;8.80;99.90
27978;DHT22;15314;49.248;6.968;2023-03-14T10:58:27;8.90;99.90
27978;DHT22;15314;49.248;6.968;2023-03-14T10:59:37;8.90;99.90
27978;DHT22;15314;49.248;6.968;2023-03-14T11:00:39;8.90;99.90
27978;DHT22;15314;49.248;6.968;2023-03-14T11:01:59;9.00;99.90
27978;DHT22;15314;49.248;6.968;2023-03-14T11:03:13;9.10;99.90
27978;DHT22;15314;49.248;6.968;2023-03-14T11:05:57;9.40;99.90
27978;DHT22;15314;49.248;6.968;2023-03-14T11:08:32;9.70;99.90
27978;DHT22;15314;49.248;6.968;2023-03-14T11:09:47;10.00;99.90
27978;DHT22;15314;49.248;6.968;2023-03-14T11:11:02;11.70;99.90
27978;DHT22;15314;49.248;6.968;2023-03-14T11:13:56;15.70;93.60
27978;DHT22;15314;49.248;6.968;2023-03-14T11:15:04;14.50;91.80
27978;DHT22;15314;49.248;6.968;2023-03-14T11:16:14;12.90;91.70
27978;DHT22;15314;49.248;6.968;2023-03-14T11:20:51;12.30;92.30
27978;DHT22;15314;49.248;6.968;2023-03-14T11:22:02;13.40;92.00
27978;DHT22;15314;49.248;6.968;2023-03-14T11:23:27;14.20;91.50
27978;DHT22;15314;49.248;6.968;2023-03-14T11:27:00;14.70;89.70
27978;DHT22;15314;49.248;6.968;2023-03-14T11:27:52;15.10;88.10
27978;DHT22;15314;49.248;6.968;2023-03-14T11:30:49;13.20;89.40
27978;DHT22;15314;49.248;6.968;2023-03-14T11:31:49;12.60;87.00
27978;DHT22;15314;49.248;6.968;2023-03-14T11:35:09;14.00;85.40
27978;DHT22;15314;49.248;6.968;2023-03-14T11:36:24;13.30;85.90
27978;DHT22;15314;49.248;6.968;2023-03-14T11:37:36;12.20;85.20
27978;DHT22;15314;49.248;6.968;2023-03-14T11:38:49;11.80;86.20
27978;DHT22;15314;49.248;6.968;2023-03-14T11:40:06;11.60;86.50
27978;DHT22;15314;49.248;6.968;2023-03-14T11:41:17;11.90;85.70
27978;DHT22;15314;49.248;6.968;2023-03-14T11:42:20;12.10;86.30
27978;DHT22;15314;49.248;6.968;2023-03-14T11:43:37;12.10;86.00
27978;DHT22;15314;49.248;6.968;2023-03-14T11:44:44;13.20;86.50
27978;DHT22;15314;49.248;6.968;2023-03-14T11:45:49;13.80;83.30
27978;DHT22;15314;49.248;6.968;2023-03-14T11:47:18;13.50;82.80
27978;DHT22;15314;49.248;6.968;2023-03-14T11:50:16;16.10;77.80
27978;DHT22;15314;49.248;6.968;2023-03-14T11:51:32;17.80;75.00
27978;DHT22;15314;49.248;6.968;2023-03-14T11:52:54;18.90;70.50
27978;DHT22;15314;49.248;6.968;2023-03-14T11:55:32;16.00;69.30
27978;DHT22;15314;49.248;6.968;2023-03-14T11:56:48;14.70;72.20
27978;DHT22;15314;49.248;6.968;2023-03-14T11:57:55;14.00;74.40
27978;DHT22;15314;49.248;6.968;2023-03-14T11:59:09;13.80;76.10
27978;DHT22;15314;49.248;6.968;2023-03-14T12:00:16;14.30;75.20
27978;DHT22;15314;49.248;6.968;2023-03-14T12:01:21;13.30;75.20
27978;DHT22;15314;49.248;6.968;2023-03-14T12:02:51;12.90;76.50
27978;DHT22;15314;49.248;6.968;2023-03-14T12:04:19;14.80;75.80
27978;DHT22;15314;49.248;6.968;2023-03-14T12:05:38;13.30;75.80
27978;DHT22;15314;49.248;6.968;2023-03-14T12:06:51;13.60;76.20
27978;DHT22;15314;49.248;6.968;2023-03-14T12:09:20;14.10;77.40
27978;DHT22;15314;49.248;6.968;2023-03-14T12:10:22;15.20;74.60
27978;DHT22;15314;49.248;6.968;2023-03-14T12:11:33;14.50;74.20
27978;DHT22;15314;49.248;6.968;2023-03-14T12:12:35;14.10;75.50
27978;DHT22;15314;49.248;6.968;2023-03-14T12:13:38;13.70;76.40
27978;DHT22;15314;49.248;6.968;2023-03-14T12:14:57;13.10;75.50
27978;DHT22;15314;49.248;6.968;2023-03-14T12:16:00;12.50;76.10
27978;DHT22;15314;49.248;6.968;2023-03-14T12:19:30;11.70;76.90
27978;DHT22;15314;49.248;6.968;2023-03-14T12:20:36;11.40;77.60
27978;DHT22;15314;49.248;6.968;2023-03-14T12:21:59;11.00;77.50
27978;DHT22;15314;49.248;6.968;2023-03-14T12:23:04;10.90;79.00
27978;DHT22;15314;49.248;6.968;2023-03-14T12:24:20;10.90;79.30
27978;DHT22;15314;49.248;6.968;2023-03-14T12:25:30;10.60;79.90
27978;DHT22;15314;49.248;6.968;2023-03-14T12:27:06;10.40;78.80
27978;DHT22;15314;49.248;6.968;2023-03-14T12:28:21;10.20;79.70
27978;DHT22;15314;49.248;6.968;2023-03-14T12:29:22;10.20;79.70
27978;DHT22;15314;49.248;6.968;2023-03-14T12:30:30;10.20;78.80
27978;DHT22;15314;49.248;6.968;2023-03-14T12:31:38;10.30;79.40
27978;DHT22;15314;49.248;6.968;2023-03-14T12:32:39;10.60;80.00
27978;DHT22;15314;49.248;6.968;2023-03-14T12:33:40;11.10;78.80
27978;DHT22;15314;49.248;6.968;2023-03-14T12:34:43;12.80;78.50
27978;DHT22;15314;49.248;6.968;2023-03-14T12:35:52;17.80;73.00
27978;DHT22;15314;49.248;6.968;2023-03-14T12:43:29;13.50;68.30
27978;DHT22;15314;49.248;6.968;2023-03-14T12:45:35;13.90;69.40
27978;DHT22;15314;49.248;6.968;2023-03-14T12:46:36;13.20;69.70
27978;DHT22;15314;49.248;6.968;2023-03-14T12:48:38;12.40;71.20
27978;DHT22;15314;49.248;6.968;2023-03-14T12:49:40;13.30;73.00
27978;DHT22;15314;49.248;6.968;2023-03-14T12:50:46;13.20;72.40
27978;DHT22;15314;49.248;6.968;2023-03-14T12:52:01;14.60;69.50
27978;DHT22;15314;49.248;6.968;2023-03-14T12:53:27;13.20;69.40
27978;DHT22;15314;49.248;6.968;2023-03-14T12:56:03;14.30;68.50
27978;DHT22;15314;49.248;6.968;2023-03-14T12:59:56;14.50;68.10
27978;DHT22;15314;49.248;6.968;2023-03-14T13:01:01;13.30;67.60
27978;DHT22;15314;49.248;6.968;2023-03-14T13:02:17;12.70;69.70
27978;DHT22;15314;49.248;6.968;2023-03-14T13:03:23;12.30;71.10
27978;DHT22;15314;49.248;6.968;2023-03-14T13:04:37;11.80;71.40
27978;DHT22;15314;49.248;6.968;2023-03-14T13:06:05;11.50;71.30
27978;DHT22;15314;49.248;6.968;2023-03-14T13:08:48;11.20;73.60
27978;DHT22;15314;49.248;6.968;2023-03-14T13:09:55;11.00;73.40
27978;DHT22;15314;49.248;6.968;2023-03-14T13:11:02;10.90;73.70
27978;DHT22;15314;49.248;6.968;2023-03-14T13:12:13;10.70;73.60
27978;DHT22;15314;49.248;6.968;2023-03-14T13:13:23;10.70;73.70
27978;DHT22;15314;49.248;6.968;2023-03-14T13:14:31;10.70;74.40
27978;DHT22;15314;49.248;6.968;2023-03-14T13:15:43;13.50;74.90
27978;DHT22;15314;49.248;6.968;2023-03-14T13:16:46;17.10;69.70
27978;DHT22;15314;49.248;6.968;2023-03-14T13:17:49;19.30;66.50
27978;DHT22;15314;49.248;6.968;2023-03-14T13:19:27;20.40;64.80
27978;DHT22;15314;49.248;6.968;2023-03-14T13:20:32;21.70;62.40
27978;DHT22;15314;49.248;6.968;2023-03-14T13:21:35;19.40;60.80
27978;DHT22;15314;49.248;6.968;2023-03-14T13:22:37;16.00;62.10
27978;DHT22;15314;49.248;6.968;2023-03-14T13:23:39;14.70;65.20
27978;DHT22;15314;49.248;6.968;2023-03-14T13:24:40;14.30;66.90
27978;DHT22;15314;49.248;6.968;2023-03-14T13:25:42;14.10;67.70
27978;DHT22;15314;49.248;6.968;2023-03-14T13:26:43;14.00;70.10
27978;DHT22;15314;49.248;6.968;2023-03-14T13:27:44;13.60;68.50
27978;DHT22;15314;49.248;6.968;2023-03-14T13:28:45;13.10;69.90
27978;DHT22;15314;49.248;6.968;2023-03-14T13:29:48;13.20;70.30
27978;DHT22;15314;49.248;6.968;2023-03-14T13:30:58;12.90;70.70
27978;DHT22;15314;49.248;6.968;2023-03-14T13:32:15;13.00;71.00
27978;DHT22;15314;49.248;6.968;2023-03-14T13:33:19;13.00;71.80
27978;DHT22;15314;49.248;6.968;2023-03-14T13:34:20;13.00;72.10
27978;DHT22;15314;49.248;6.968;2023-03-14T13:36:25;12.50;71.40
27978;DHT22;15314;49.248;6.968;2023-03-14T13:37:26;12.20;73.00
27978;DHT22;15314;49.248;6.968;2023-03-14T13:38:29;12.20;72.90
27978;DHT22;15314;49.248;6.968;2023-03-14T13:39:30;12.30;73.30
27978;DHT22;15314;49.248;6.968;2023-03-14T13:40:34;12.20;73.30
27978;DHT22;15314;49.248;6.968;2023-03-14T13:41:35;12.10;73.80
27978;DHT22;15314;49.248;6.968;2023-03-14T13:42:36;11.90;73.60
27978;DHT22;15314;49.248;6.968;2023-03-14T13:43:41;11.70;73.50
27978;DHT22;15314;49.248;6.968;2023-03-14T13:44:44;11.40;74.20
27978;DHT22;15314;49.248;6.968;2023-03-14T13:45:55;11.30;74.00
27978;DHT22;15314;49.248;6.968;2023-03-14T13:47:01;11.30;75.30
27978;DHT22;15314;49.248;6.968;2023-03-14T13:48:02;11.40;76.00
27978;DHT22;15314;49.248;6.968;2023-03-14T13:49:05;11.50;75.40
27978;DHT22;15314;49.248;6.968;2023-03-14T13:50:16;11.70;75.60
27978;DHT22;15314;49.248;6.968;2023-03-14T13:51:19;12.00;75.70
27978;DHT22;15314;49.248;6.968;2023-03-14T13:52:28;12.10;75.10
27978;DHT22;15314;49.248;6.968;2023-03-14T13:53:31;12.10;74.70
27978;DHT22;15314;49.248;6.968;2023-03-14T13:54:32;12.20;75.00
27978;DHT22;15314;49.248;6.968;2023-03-14T13:55:33;12.20;75.00
27978;DHT22;15314;49.248;6.968;2023-03-14T13:56:34;12.10;75.00
27978;DHT22;15314;49.248;6.968;2023-03-14T13:57:52;12.00;75.60
27978;DHT22;15314;49.248;6.968;2023-03-14T13:58:55;11.80;75.80
27978;DHT22;15314;49.248;6.968;2023-03-14T14:00:05;11.70;76.00
27978;DHT22;15314;49.248;6.968;2023-03-14T14:01:16;11.50;75.70
27978;DHT22;15314;49.248;6.968;2023-03-14T14:02:20;11.70;76.20
27978;DHT22;15314;49.248;6.968;2023-03-14T14:03:22;11.60;76.60
27978;DHT22;15314;49.248;6.968;2023-03-14T14:04:24;11.60;76.70
27978;DHT22;15314;49.248;6.968;2023-03-14T14:05:28;11.50;76.70
27978;DHT22;15314;49.248;6.968;2023-03-14T14:06:37;11.40;77.00
27978;DHT22;15314;49.248;6.968;2023-03-14T14:07:40;11.70;76.20
27978;DHT22;15314;49.248;6.968;2023-03-14T14:08:43;11.40;75.80
27978;DHT22;15314;49.248;6.968;2023-03-14T14:09:49;11.40;76.30
27978;DHT22;15314;49.248;6.968;2023-03-14T14:10:56;11.50;76.50
27978;DHT22;15314;49.248;6.968;2023-03-14T14:12:06;11.60;76.00
27978;DHT22;15314;49.248;6.968;2023-03-14T14:13:15;11.80;76.80
27978;DHT22;15314;49.248;6.968;2023-03-14T14:14:35;11.80;76.10
27978;DHT22;15314;49.248;6.968;2023-03-14T14:15:41;11.70;76.60
27978;DHT22;15314;49.248;6.968;2023-03-14T14:16:46;11.60;76.40
27978;DHT22;15314;49.248;6.968;2023-03-14T14:17:52;11.30;75.80
27978;DHT22;15314;49.248;6.968;2023-03-14T14:18:54;11.10;75.10
27978;DHT22;15314;49.248;6.968;2023-03-14T14:19:56;10.90;75.70
27978;DHT22;15314;49.248;6.968;2023-03-14T14:20:58;10.70;75.80
27978;DHT22;15314;49.248;6.968;2023-03-14T14:22:00;10.70;76.30
27978;DHT22;15314;49.248;6.968;2023-03-14T14:23:06;10.70;77.20
27978;DHT22;15314;49.248;6.968;2023-03-14T14:24:17;10.70;77.00
27978;DHT22;15314;49.248;6.968;2023-03-14T14:25:19;10.50;77.30
27978;DHT22;15314;49.248;6.968;2023-03-14T14:26:20;10.50;76.90
27978;DHT22;15314;49.248;6.968;2023-03-14T14:27:28;10.30;77.20
27978;DHT22;15314;49.248;6.968;2023-03-14T14:28:34;10.40;77.90
27978;DHT22;15314;49.248;6.968;2023-03-14T14:29:35;10.40;77.60
27978;DHT22;15314;49.248;6.968;2023-03-14T14:30:37;10.50;77.50
27978;DHT22;15314;49.248;6.968;2023-03-14T14:31:37;10.70;77.70
27978;DHT22;15314;49.248;6.968;2023-03-14T14:32:40;10.70;77.70
27978;DHT22;15314;49.248;6.968;2023-03-14T14:33:46;10.80;77.20
27978;DHT22;15314;49.248;6.968;2023-03-14T14:34:57;10.90;76.50
27978;DHT22;15314;49.248;6.968;2023-03-14T14:35:59;10.90;77.20
27978;DHT22;15314;49.248;6.968;2023-03-14T14:37:02;10.90;76.10
27978;DHT22;15314;49.248;6.968;2023-03-14T14:38:15;10.80;76.10
27978;DHT22;15314;49.248;6.968;2023-03-14T14:39:21;10.90;75.90
27978;DHT22;15314;49.248;6.968;2023-03-14T14:40:28;10.90;76.30
27978;DHT22;15314;49.248;6.968;2023-03-14T14:41:31;10.80;76.50
27978;DHT22;15314;49.248;6.968;2023-03-14T14:42:33;10.80;76.20
27978;DHT22;15314;49.248;6.968;2023-03-14T14:43:38;11.00;76.40
27978;DHT22;15314;49.248;6.968;2023-03-14T14:44:42;10.90;75.50
27978;DHT22;15314;49.248;6.968;2023-03-14T14:45:43;10.80;75.90
27978;DHT22;15314;49.248;6.968;2023-03-14T14:46:45;10.80;75.10
27978;DHT22;15314;49.248;6.968;2023-03-14T14:47:54;11.00;76.30
27978;DHT22;15314;49.248;6.968;2023-03-14T14:48:57;11.40;75.70
27978;DHT22;15314;49.248;6.968;2023-03-14T14:50:00;11.60;76.50
27978;DHT22;15314;49.248;6.968;2023-03-14T14:51:06;11.60;74.80
27978;DHT22;15314;49.248;6.968;2023-03-14T14:52:19;11.50;75.60
27978;DHT22;15314;49.248;6.968;2023-03-14T14:53:31;11.40;76.10
27978;DHT22;15314;49.248;6.968;2023-03-14T14:54:47;11.30;76.00
27978;DHT22;15314;49.248;6.968;2023-03-14T14:55:56;11.20;75.30
27978;DHT22;15314;49.248;6.968;2023-03-14T14:57:03;11.20;76.90
27978;DHT22;15314;49.248;6.968;2023-03-14T14:59:27;10.80;76.10
27978;DHT22;15314;49.248;6.968;2023-03-14T15:00:29;10.60;75.80
27978;DHT22;15314;49.248;6.968;2023-03-14T15:01:36;10.50;76.90
27978;DHT22;15314;49.248;6.968;2023-03-14T15:02:45;10.50;77.90
27978;DHT22;15314;49.248;6.968;2023-03-14T15:03:51;10.50;77.30
27978;DHT22;15314;49.248;6.968;2023-03-14T15:04:53;10.50;77.70
27978;DHT22;15314;49.248;6.968;2023-03-14T15:05:54;10.50;77.50
27978;DHT22;15314;49.248;6.968;2023-03-14T15:06:56;10.50;78.20
27978;DHT22;15314;49.248;6.968;2023-03-14T15:07:56;10.60;78.50
27978;DHT22;15314;49.248;6.968;2023-03-14T15:08:58;10.60;78.70
27978;DHT22;15314;49.248;6.968;2023-03-14T15:09:59;10.60;78.50
27978;DHT22;15314;49.248;6.968;2023-03-14T15:11:00;10.40;78.00
27978;DHT22;15314;49.248;6.968;2023-03-14T15:12:01;10.50;78.00
27978;DHT22;15314;49.248;6.968;2023-03-14T15:13:02;10.50;79.00
27978;DHT22;15314;49.248;6.968;2023-03-14T15:14:03;10.50;78.70
27978;DHT22;15314;49.248;6.968;2023-03-14T15:15:05;10.50;78.90
27978;DHT22;15314;49.248;6.968;2023-03-14T15:16:12;10.60;79.60
27978;DHT22;15314;49.248;6.968;2023-03-14T15:17:14;10.60;78.70
27978;DHT22;15314;49.248;6.968;2023-03-14T15:18:17;10.60;78.60
27978;DHT22;15314;49.248;6.968;2023-03-14T15:19:21;10.60;78.80
27978;DHT22;15314;49.248;6.968;2023-03-14T15:20:23;10.50;79.50
27978;DHT22;15314;49.248;6.968;2023-03-14T15:21:26;10.50;79.20
27978;DHT22;15314;49.248;6.968;2023-03-14T15:22:27;10.40;80.10
27978;DHT22;15314;49.248;6.968;2023-03-14T15:23:28;10.40;79.30
27978;DHT22;15314;49.248;6.968;2023-03-14T15:24:29;10.30;79.40
27978;DHT22;15314;49.248;6.968;2023-03-14T15:25:30;10.30;79.70
27978;DHT22;15314;49.248;6.968;2023-03-14T15:26:30;10.30;80.00